sensor_id;sensor_type;location;lat;lon;timestamp;temperature;humidity
78902;DHT22;70441;44.758;37.686;2024-01-30T00:00:54;-1.97;78.36
78902;DHT22;70441;44.758;37.686;2024-01-30T00:01:56;-1.97;78.24
78902;DHT22;70441;44.758;37.686;2024-01-30T00:02:58;-1.97;78.38
78902;DHT22;70441;44.758;37.686;2024-01-30T00:04:01;-1.99;78.14
78902;DHT22;70441;44.758;37.686;2024-01-30T00:05:03;-2.03;78.41
78902;DHT22;70441;44.758;37.686;2024-01-30T00:06:05;-2.03;78.63
78902;DHT22;70441;44.758;37.686;2024-01-30T00:07:08;-1.99;78.75
78902;DHT22;70441;44.758;37.686;2024-01-30T00:08:10;-2.03;78.47
78902;DHT22;70441;44.758;37.686;2024-01-30T00:09:12;-1.99;78.72
78902;DHT22;70441;44.758;37.686;2024-01-30T00:10:15;-1.97;78.67
78902;DHT22;70441;44.758;37.686;2024-01-30T00:11:17;-1.97;78.87
78902;DHT22;70441;44.758;37.686;2024-01-30T00:12:19;-1.99;78.90
78902;DHT22;70441;44.758;37.686;2024-01-30T00:13:22;-1.96;78.81
78902;DHT22;70441;44.758;37.686;2024-01-30T00:14:24;-1.97;78.87
78902;DHT22;70441;44.758;37.686;2024-01-30T00:15:27;-1.94;78.83
78902;DHT22;70441;44.758;37.686;2024-01-30T00:16:29;-1.96;78.56
78902;DHT22;70441;44.758;37.686;2024-01-30T00:17:32;-2.03;78.74
78902;DHT22;70441;44.758;37.686;2024-01-30T00:18:34;-2.11;79.20
78902;DHT22;70441;44.758;37.686;2024-01-30T00:19:36;-2.08;79.46
78902;DHT22;70441;44.758;37.686;2024-01-30T00:20:38;-2.07;79.42
78902;DHT22;70441;44.758;37.686;2024-01-30T00:21:40;-2.04;79.44
78902;DHT22;70441;44.758;37.686;2024-01-30T00:22:42;-2.06;79.13
78902;DHT22;70441;44.758;37.686;2024-01-30T00:23:45;-2.06;79.44
78902;DHT22;70441;44.758;37.686;2024-01-30T00:24:47;-2.06;79.21
78902;DHT22;70441;44.758;37.686;2024-01-30T00:25:50;-2.07;79.33
78902;DHT22;70441;44.758;37.686;2024-01-30T00:26:52;-2.04;79.44
78902;DHT22;70441;44.758;37.686;2024-01-30T00:27:56;-2.03;79.28
78902;DHT22;70441;44.758;37.686;2024-01-30T00:28:58;-1.99;79.24
78902;DHT22;70441;44.758;37.686;2024-01-30T00:30:00;-1.96;79.05
78902;DHT22;70441;44.758;37.686;2024-01-30T00:31:03;-1.99;78.66
78902;DHT22;70441;44.758;37.686;2024-01-30T00:32:06;-1.97;78.49
78902;DHT22;70441;44.758;37.686;2024-01-30T00:33:09;-1.94;78.52
78902;DHT22;70441;44.758;37.686;2024-01-30T00:34:11;-1.99;78.39
78902;DHT22;70441;44.758;37.686;2024-01-30T00:35:14;-1.96;78.52
78902;DHT22;70441;44.758;37.686;2024-01-30T00:36:16;-1.94;78.59
78902;DHT22;70441;44.758;37.686;2024-01-30T00:37:18;-1.89;78.63
78902;DHT22;70441;44.758;37.686;2024-01-30T00:38:20;-1.83;78.23
78902;DHT22;70441;44.758;37.686;2024-01-30T00:39:22;-1.89;77.85
78902;DHT22;70441;44.758;37.686;2024-01-30T00:40:26;-1.85;77.89
78902;DHT22;70441;44.758;37.686;2024-01-30T00:41:28;-1.82;77.90
78902;DHT22;70441;44.758;37.686;2024-01-30T00:42:30;-1.79;77.90
78902;DHT22;70441;44.758;37.686;2024-01-30T00:43:32;-1.73;77.62
78902;DHT22;70441;44.758;37.686;2024-01-30T00:44:35;-1.76;76.97
78902;DHT22;70441;44.758;37.686;2024-01-30T00:45:40;-1.89;77.02
78902;DHT22;70441;44.758;37.686;2024-01-30T00:46:42;-1.96;77.71
78902;DHT22;70441;44.758;37.686;2024-01-30T00:47:45;-1.90;77.93
78902;DHT22;70441;44.758;37.686;2024-01-30T00:48:47;-1.93;77.70
78902;DHT22;70441;44.758;37.686;2024-01-30T00:49:50;-1.93;77.63
78902;DHT22;70441;44.758;37.686;2024-01-30T00:50:52;-1.91;77.49
78902;DHT22;70441;44.758;37.686;2024-01-30T00:51:55;-1.91;77.37
78902;DHT22;70441;44.758;37.686;2024-01-30T00:52:57;-1.91;77.38
78902;DHT22;70441;44.758;37.686;2024-01-30T00:53:59;-1.90;77.11
78902;DHT22;70441;44.758;37.686;2024-01-30T00:55:02;-1.90;76.97
78902;DHT22;70441;44.758;37.686;2024-01-30T00:56:06;-1.96;76.84
78902;DHT22;70441;44.758;37.686;2024-01-30T00:57:08;-1.99;76.93
78902;DHT22;70441;44.758;37.686;2024-01-30T00:58:11;-2.01;77.05
78902;DHT22;70441;44.758;37.686;2024-01-30T00:59:13;-2.03;76.93
78902;DHT22;70441;44.758;37.686;2024-01-30T01:00:15;-2.04;77.10
78902;DHT22;70441;44.758;37.686;2024-01-30T01:01:22;-2.03;77.15
78902;DHT22;70441;44.758;37.686;2024-01-30T01:02:24;-1.97;77.16
78902;DHT22;70441;44.758;37.686;2024-01-30T01:03:26;-1.99;77.08
78902;DHT22;70441;44.758;37.686;2024-01-30T01:04:29;-1.99;76.98
78902;DHT22;70441;44.758;37.686;2024-01-30T01:05:31;-1.97;77.10
78902;DHT22;70441;44.758;37.686;2024-01-30T01:06:34;-1.97;77.26
78902;DHT22;70441;44.758;37.686;2024-01-30T01:07:36;-1.96;77.12
78902;DHT22;70441;44.758;37.686;2024-01-30T01:08:38;-1.96;76.97
78902;DHT22;70441;44.758;37.686;2024-01-30T01:09:41;-1.96;77.13
78902;DHT22;70441;44.758;37.686;2024-01-30T01:10:43;-1.94;77.22
78902;DHT22;70441;44.758;37.686;2024-01-30T01:11:46;-1.91;77.16
78902;DHT22;70441;44.758;37.686;2024-01-30T01:12:49;-1.91;76.93
78902;DHT22;70441;44.758;37.686;2024-01-30T01:13:52;-1.91;76.62
78902;DHT22;70441;44.758;37.686;2024-01-30T01:14:54;-1.91;76.60
78902;DHT22;70441;44.758;37.686;2024-01-30T01:15:57;-1.91;76.38
78902;DHT22;70441;44.758;37.686;2024-01-30T01:16:59;-1.94;76.93
78902;DHT22;70441;44.758;37.686;2024-01-30T01:18:01;-1.94;77.10
78902;DHT22;70441;44.758;37.686;2024-01-30T01:19:04;-1.94;77.08
78902;DHT22;70441;44.758;37.686;2024-01-30T01:20:08;-1.91;76.97
78902;DHT22;70441;44.758;37.686;2024-01-30T01:21:13;-1.93;76.88
78902;DHT22;70441;44.758;37.686;2024-01-30T01:22:16;-1.93;76.77
78902;DHT22;70441;44.758;37.686;2024-01-30T01:23:20;-1.91;76.83
78902;DHT22;70441;44.758;37.686;2024-01-30T01:24:23;-1.93;76.77
78902;DHT22;70441;44.758;37.686;2024-01-30T01:25:26;-1.93;76.65
78902;DHT22;70441;44.758;37.686;2024-01-30T01:26:29;-1.90;76.54
78902;DHT22;70441;44.758;37.686;2024-01-30T01:27:31;-1.90;76.38
78902;DHT22;70441;44.758;37.686;2024-01-30T01:28:34;-1.93;76.27
78902;DHT22;70441;44.758;37.686;2024-01-30T01:29:37;-1.91;76.69
78902;DHT22;70441;44.758;37.686;2024-01-30T01:30:39;-1.90;76.57
78902;DHT22;70441;44.758;37.686;2024-01-30T01:31:42;-1.89;76.56
78902;DHT22;70441;44.758;37.686;2024-01-30T01:32:50;-1.86;76.52
78902;DHT22;70441;44.758;37.686;2024-01-30T01:33:56;-1.89;76.03
78902;DHT22;70441;44.758;37.686;2024-01-30T01:34:58;-2.00;76.17
78902;DHT22;70441;44.758;37.686;2024-01-30T01:36:00;-2.04;76.71
78902;DHT22;70441;44.758;37.686;2024-01-30T01:37:05;-2.03;76.74
78902;DHT22;70441;44.758;37.686;2024-01-30T01:38:07;-2.01;76.65
78902;DHT22;70441;44.758;37.686;2024-01-30T01:39:09;-2.06;76.62
78902;DHT22;70441;44.758;37.686;2024-01-30T01:40:13;-2.13;76.77
78902;DHT22;70441;44.758;37.686;2024-01-30T01:41:15;-2.14;76.93
78902;DHT22;70441;44.758;37.686;2024-01-30T01:42:16;-2.13;77.24
78902;DHT22;70441;44.758;37.686;2024-01-30T01:43:18;-2.08;77.04
78902;DHT22;70441;44.758;37.686;2024-01-30T01:44:20;-2.06;77.02
78902;DHT22;70441;44.758;37.686;2024-01-30T01:45:23;-2.08;76.93
78902;DHT22;70441;44.758;37.686;2024-01-30T01:46:30;-2.08;76.79
78902;DHT22;70441;44.758;37.686;2024-01-30T01:47:32;-2.07;76.66
78902;DHT22;70441;44.758;37.686;2024-01-30T01:48:34;-2.07;76.68
78902;DHT22;70441;44.758;37.686;2024-01-30T01:49:37;-2.03;76.49
78902;DHT22;70441;44.758;37.686;2024-01-30T01:50:39;-2.08;76.19
78902;DHT22;70441;44.758;37.686;2024-01-30T01:51:43;-2.10;76.60
78902;DHT22;70441;44.758;37.686;2024-01-30T01:52:47;-2.17;76.71
78902;DHT22;70441;44.758;37.686;2024-01-30T01:53:50;-2.20;77.15
78902;DHT22;70441;44.758;37.686;2024-01-30T01:54:52;-2.18;77.25
78902;DHT22;70441;44.758;37.686;2024-01-30T01:55:55;-2.15;76.76
78902;DHT22;70441;44.758;37.686;2024-01-30T01:56:57;-2.14;76.83
78902;DHT22;70441;44.758;37.686;2024-01-30T01:57:59;-2.17;76.70
78902;DHT22;70441;44.758;37.686;2024-01-30T01:59:08;-2.15;76.68
78902;DHT22;70441;44.758;37.686;2024-01-30T02:00:12;-2.18;76.91
78902;DHT22;70441;44.758;37.686;2024-01-30T02:01:17;-2.15;77.15
78902;DHT22;70441;44.758;37.686;2024-01-30T02:02:23;-2.15;77.14
78902;DHT22;70441;44.758;37.686;2024-01-30T02:03:27;-2.20;77.17
78902;DHT22;70441;44.758;37.686;2024-01-30T02:04:29;-2.14;77.24
78902;DHT22;70441;44.758;37.686;2024-01-30T02:05:31;-2.14;77.07
78902;DHT22;70441;44.758;37.686;2024-01-30T02:06:34;-2.11;76.99
78902;DHT22;70441;44.758;37.686;2024-01-30T02:07:37;-2.17;76.69
78902;DHT22;70441;44.758;37.686;2024-01-30T02:08:39;-2.17;77.18
78902;DHT22;70441;44.758;37.686;2024-01-30T02:09:41;-2.11;77.33
78902;DHT22;70441;44.758;37.686;2024-01-30T02:10:44;-2.10;77.34
78902;DHT22;70441;44.758;37.686;2024-01-30T02:11:46;-2.15;77.11
78902;DHT22;70441;44.758;37.686;2024-01-30T02:12:51;-2.15;77.20
78902;DHT22;70441;44.758;37.686;2024-01-30T02:13:53;-2.18;77.17
78902;DHT22;70441;44.758;37.686;2024-01-30T02:14:55;-2.18;77.15
78902;DHT22;70441;44.758;37.686;2024-01-30T02:15:57;-2.18;77.05
78902;DHT22;70441;44.758;37.686;2024-01-30T02:16:58;-2.11;77.25
78902;DHT22;70441;44.758;37.686;2024-01-30T02:18:00;-2.11;77.32
78902;DHT22;70441;44.758;37.686;2024-01-30T02:19:03;-2.04;77.38
78902;DHT22;70441;44.758;37.686;2024-01-30T02:20:09;-2.10;76.82
78902;DHT22;70441;44.758;37.686;2024-01-30T02:21:10;-2.10;76.88
78902;DHT22;70441;44.758;37.686;2024-01-30T02:22:12;-2.11;76.70
78902;DHT22;70441;44.758;37.686;2024-01-30T02:23:16;-2.13;76.68
78902;DHT22;70441;44.758;37.686;2024-01-30T02:24:18;-2.17;76.65
78902;DHT22;70441;44.758;37.686;2024-01-30T02:25:20;-2.17;76.69
78902;DHT22;70441;44.758;37.686;2024-01-30T02:26:32;-2.15;76.78
78902;DHT22;70441;44.758;37.686;2024-01-30T02:27:33;-2.13;76.86
78902;DHT22;70441;44.758;37.686;2024-01-30T02:28:35;-2.11;76.60
78902;DHT22;70441;44.758;37.686;2024-01-30T02:29:37;-2.17;76.55
78902;DHT22;70441;44.758;37.686;2024-01-30T02:30:39;-2.14;76.92
78902;DHT22;70441;44.758;37.686;2024-01-30T02:31:43;-2.17;76.72
78902;DHT22;70441;44.758;37.686;2024-01-30T02:32:47;-2.15;76.70
78902;DHT22;70441;44.758;37.686;2024-01-30T02:33:49;-2.13;76.76
78902;DHT22;70441;44.758;37.686;2024-01-30T02:34:52;-2.15;76.66
78902;DHT22;70441;44.758;37.686;2024-01-30T02:35:54;-2.15;76.59
78902;DHT22;70441;44.758;37.686;2024-01-30T02:36:56;-2.17;76.56
78902;DHT22;70441;44.758;37.686;2024-01-30T02:37:58;-2.20;76.75
78902;DHT22;70441;44.758;37.686;2024-01-30T02:39:00;-2.21;76.76
78902;DHT22;70441;44.758;37.686;2024-01-30T02:40:03;-2.23;76.74
78902;DHT22;70441;44.758;37.686;2024-01-30T02:41:06;-2.21;76.78
78902;DHT22;70441;44.758;37.686;2024-01-30T02:42:07;-2.20;76.81
78902;DHT22;70441;44.758;37.686;2024-01-30T02:43:10;-2.20;76.54
78902;DHT22;70441;44.758;37.686;2024-01-30T02:44:12;-2.17;76.37
78902;DHT22;70441;44.758;37.686;2024-01-30T02:45:14;-2.17;76.14
78902;DHT22;70441;44.758;37.686;2024-01-30T02:46:16;-2.17;76.03
78902;DHT22;70441;44.758;37.686;2024-01-30T02:47:19;-2.17;76.18
78902;DHT22;70441;44.758;37.686;2024-01-30T02:48:21;-2.15;76.17
78902;DHT22;70441;44.758;37.686;2024-01-30T02:49:23;-2.18;75.87
78902;DHT22;70441;44.758;37.686;2024-01-30T02:50:25;-2.18;76.34
78902;DHT22;70441;44.758;37.686;2024-01-30T02:51:27;-2.20;76.25
78902;DHT22;70441;44.758;37.686;2024-01-30T02:52:29;-2.23;76.24
78902;DHT22;70441;44.758;37.686;2024-01-30T02:53:32;-2.25;76.13
78902;DHT22;70441;44.758;37.686;2024-01-30T02:54:34;-2.27;76.17
78902;DHT22;70441;44.758;37.686;2024-01-30T02:55:36;-2.27;76.28
78902;DHT22;70441;44.758;37.686;2024-01-30T02:56:38;-2.31;76.33
78902;DHT22;70441;44.758;37.686;2024-01-30T02:57:41;-2.32;76.40
78902;DHT22;70441;44.758;37.686;2024-01-30T02:58:43;-2.30;76.57
78902;DHT22;70441;44.758;37.686;2024-01-30T02:59:45;-2.32;76.59
78902;DHT22;70441;44.758;37.686;2024-01-30T03:00:47;-2.30;76.46
78902;DHT22;70441;44.758;37.686;2024-01-30T03:01:49;-2.30;76.28
78902;DHT22;70441;44.758;37.686;2024-01-30T03:02:51;-2.30;76.10
78902;DHT22;70441;44.758;37.686;2024-01-30T03:03:54;-2.34;76.21
78902;DHT22;70441;44.758;37.686;2024-01-30T03:04:56;-2.34;76.36
78902;DHT22;70441;44.758;37.686;2024-01-30T03:05:58;-2.34;76.33
78902;DHT22;70441;44.758;37.686;2024-01-30T03:07:00;-2.38;76.25
78902;DHT22;70441;44.758;37.686;2024-01-30T03:08:04;-2.40;76.20
78902;DHT22;70441;44.758;37.686;2024-01-30T03:09:07;-2.45;76.23
78902;DHT22;70441;44.758;37.686;2024-01-30T03:10:11;-2.49;76.51
78902;DHT22;70441;44.758;37.686;2024-01-30T03:11:13;-2.48;76.66
78902;DHT22;70441;44.758;37.686;2024-01-30T03:12:39;-2.50;76.56
78902;DHT22;70441;44.758;37.686;2024-01-30T03:13:42;-2.53;76.75
78902;DHT22;70441;44.758;37.686;2024-01-30T03:14:44;-2.52;77.03
78902;DHT22;70441;44.758;37.686;2024-01-30T03:15:47;-2.45;76.92
78902;DHT22;70441;44.758;37.686;2024-01-30T03:16:49;-2.48;76.92
78902;DHT22;70441;44.758;37.686;2024-01-30T03:17:51;-2.46;76.71
78902;DHT22;70441;44.758;37.686;2024-01-30T03:18:54;-2.49;76.56
78902;DHT22;70441;44.758;37.686;2024-01-30T03:19:58;-2.50;76.63
78902;DHT22;70441;44.758;37.686;2024-01-30T03:21:00;-2.49;76.73
78902;DHT22;70441;44.758;37.686;2024-01-30T03:22:03;-2.48;76.75
78902;DHT22;70441;44.758;37.686;2024-01-30T03:23:05;-2.53;76.73
78902;DHT22;70441;44.758;37.686;2024-01-30T03:24:08;-2.53;76.86
78902;DHT22;70441;44.758;37.686;2024-01-30T03:25:11;-2.56;76.79
78902;DHT22;70441;44.758;37.686;2024-01-30T03:26:13;-2.59;76.82
78902;DHT22;70441;44.758;37.686;2024-01-30T03:27:16;-2.62;76.75
78902;DHT22;70441;44.758;37.686;2024-01-30T03:28:19;-2.60;76.94
78902;DHT22;70441;44.758;37.686;2024-01-30T03:29:21;-2.60;77.00
78902;DHT22;70441;44.758;37.686;2024-01-30T03:30:23;-2.62;76.87
78902;DHT22;70441;44.758;37.686;2024-01-30T03:31:25;-2.66;77.08
78902;DHT22;70441;44.758;37.686;2024-01-30T03:32:27;-2.67;76.95
78902;DHT22;70441;44.758;37.686;2024-01-30T03:33:29;-2.66;77.11
78902;DHT22;70441;44.758;37.686;2024-01-30T03:34:32;-2.67;77.13
78902;DHT22;70441;44.758;37.686;2024-01-30T03:35:34;-2.67;76.94
78902;DHT22;70441;44.758;37.686;2024-01-30T03:36:36;-2.67;76.66
78902;DHT22;70441;44.758;37.686;2024-01-30T03:37:38;-2.69;76.92
78902;DHT22;70441;44.758;37.686;2024-01-30T03:38:40;-2.76;76.79
78902;DHT22;70441;44.758;37.686;2024-01-30T03:39:42;-2.80;76.73
78902;DHT22;70441;44.758;37.686;2024-01-30T03:40:44;-2.84;76.98
78902;DHT22;70441;44.758;37.686;2024-01-30T03:41:46;-2.87;77.11
78902;DHT22;70441;44.758;37.686;2024-01-30T03:42:48;-2.81;77.40
78902;DHT22;70441;44.758;37.686;2024-01-30T03:43:50;-2.83;77.31
78902;DHT22;70441;44.758;37.686;2024-01-30T03:44:52;-2.83;76.96
78902;DHT22;70441;44.758;37.686;2024-01-30T03:45:55;-2.83;76.83
78902;DHT22;70441;44.758;37.686;2024-01-30T03:46:56;-2.85;76.84
78902;DHT22;70441;44.758;37.686;2024-01-30T03:47:58;-2.84;76.82
78902;DHT22;70441;44.758;37.686;2024-01-30T03:49:00;-2.84;76.90
78902;DHT22;70441;44.758;37.686;2024-01-30T03:50:02;-2.83;76.94
78902;DHT22;70441;44.758;37.686;2024-01-30T03:51:06;-2.83;76.99
78902;DHT22;70441;44.758;37.686;2024-01-30T03:52:08;-2.80;76.73
78902;DHT22;70441;44.758;37.686;2024-01-30T03:53:10;-2.81;76.71
78902;DHT22;70441;44.758;37.686;2024-01-30T03:54:12;-2.83;76.61
78902;DHT22;70441;44.758;37.686;2024-01-30T03:55:14;-2.80;76.50
78902;DHT22;70441;44.758;37.686;2024-01-30T03:56:16;-2.84;76.47
78902;DHT22;70441;44.758;37.686;2024-01-30T03:57:18;-2.91;76.35
78902;DHT22;70441;44.758;37.686;2024-01-30T03:58:21;-2.94;76.90
78902;DHT22;70441;44.758;37.686;2024-01-30T03:59:23;-2.93;77.27
78902;DHT22;70441;44.758;37.686;2024-01-30T04:00:25;-2.93;76.92
78902;DHT22;70441;44.758;37.686;2024-01-30T04:01:28;-2.94;76.99
78902;DHT22;70441;44.758;37.686;2024-01-30T04:02:30;-2.93;77.03
78902;DHT22;70441;44.758;37.686;2024-01-30T04:03:32;-2.93;77.07
78902;DHT22;70441;44.758;37.686;2024-01-30T04:04:35;-2.94;76.95
78902;DHT22;70441;44.758;37.686;2024-01-30T04:05:37;-2.95;77.08
78902;DHT22;70441;44.758;37.686;2024-01-30T04:06:40;-2.95;77.12
78902;DHT22;70441;44.758;37.686;2024-01-30T04:07:42;-2.95;77.11
78902;DHT22;70441;44.758;37.686;2024-01-30T04:08:44;-2.93;77.03
78902;DHT22;70441;44.758;37.686;2024-01-30T04:09:46;-2.97;76.57
78902;DHT22;70441;44.758;37.686;2024-01-30T04:10:49;-3.01;76.96
78902;DHT22;70441;44.758;37.686;2024-01-30T04:11:51;-3.01;76.88
78902;DHT22;70441;44.758;37.686;2024-01-30T04:12:53;-3.00;76.80
78902;DHT22;70441;44.758;37.686;2024-01-30T04:13:55;-2.97;76.62
78902;DHT22;70441;44.758;37.686;2024-01-30T04:14:57;-2.98;76.55
78902;DHT22;70441;44.758;37.686;2024-01-30T04:16:00;-2.97;76.58
78902;DHT22;70441;44.758;37.686;2024-01-30T04:17:05;-2.95;76.45
78902;DHT22;70441;44.758;37.686;2024-01-30T04:18:07;-2.98;76.00
78902;DHT22;70441;44.758;37.686;2024-01-30T04:19:09;-3.00;76.20
78902;DHT22;70441;44.758;37.686;2024-01-30T04:20:17;-3.04;76.13
78902;DHT22;70441;44.758;37.686;2024-01-30T04:21:21;-3.05;76.31
78902;DHT22;70441;44.758;37.686;2024-01-30T04:22:24;-3.01;76.33
78902;DHT22;70441;44.758;37.686;2024-01-30T04:23:27;-3.07;76.10
78902;DHT22;70441;44.758;37.686;2024-01-30T04:24:29;-3.07;76.22
78902;DHT22;70441;44.758;37.686;2024-01-30T04:25:34;-3.05;75.88
78902;DHT22;70441;44.758;37.686;2024-01-30T04:26:36;-3.02;75.70
78902;DHT22;70441;44.758;37.686;2024-01-30T04:27:38;-3.04;75.53
78902;DHT22;70441;44.758;37.686;2024-01-30T04:28:47;-3.04;75.51
78902;DHT22;70441;44.758;37.686;2024-01-30T04:29:49;-3.09;75.76
78902;DHT22;70441;44.758;37.686;2024-01-30T04:30:51;-3.08;75.61
78902;DHT22;70441;44.758;37.686;2024-01-30T04:31:53;-3.09;75.63
78902;DHT22;70441;44.758;37.686;2024-01-30T04:32:55;-3.05;75.34
78902;DHT22;70441;44.758;37.686;2024-01-30T04:33:57;-3.05;75.08
78902;DHT22;70441;44.758;37.686;2024-01-30T04:34:59;-3.04;75.16
78902;DHT22;70441;44.758;37.686;2024-01-30T04:36:00;-3.04;75.11
78902;DHT22;70441;44.758;37.686;2024-01-30T04:37:03;-3.02;74.78
78902;DHT22;70441;44.758;37.686;2024-01-30T04:38:04;-3.01;74.59
78902;DHT22;70441;44.758;37.686;2024-01-30T04:39:06;-3.00;74.50
78902;DHT22;70441;44.758;37.686;2024-01-30T04:40:11;-3.00;74.46
78902;DHT22;70441;44.758;37.686;2024-01-30T04:41:13;-3.00;74.33
78902;DHT22;70441;44.758;37.686;2024-01-30T04:42:15;-2.98;74.35
78902;DHT22;70441;44.758;37.686;2024-01-30T04:43:17;-3.01;74.38
78902;DHT22;70441;44.758;37.686;2024-01-30T04:44:20;-3.01;74.70
78902;DHT22;70441;44.758;37.686;2024-01-30T04:45:22;-3.01;74.64
78902;DHT22;70441;44.758;37.686;2024-01-30T04:46:24;-3.00;74.52
78902;DHT22;70441;44.758;37.686;2024-01-30T04:47:26;-2.97;74.56
78902;DHT22;70441;44.758;37.686;2024-01-30T04:48:28;-2.97;74.61
78902;DHT22;70441;44.758;37.686;2024-01-30T04:49:30;-2.95;74.42
78902;DHT22;70441;44.758;37.686;2024-01-30T04:50:32;-2.98;74.29
78902;DHT22;70441;44.758;37.686;2024-01-30T04:51:35;-2.93;74.22
78902;DHT22;70441;44.758;37.686;2024-01-30T04:52:37;-2.94;74.18
78902;DHT22;70441;44.758;37.686;2024-01-30T04:53:39;-2.95;74.17
78902;DHT22;70441;44.758;37.686;2024-01-30T04:54:41;-2.95;74.34
78902;DHT22;70441;44.758;37.686;2024-01-30T04:55:43;-2.95;74.46
78902;DHT22;70441;44.758;37.686;2024-01-30T04:56:48;-2.97;74.37
78902;DHT22;70441;44.758;37.686;2024-01-30T04:57:51;-2.93;74.42
78902;DHT22;70441;44.758;37.686;2024-01-30T04:58:53;-2.94;74.40
78902;DHT22;70441;44.758;37.686;2024-01-30T04:59:55;-2.94;74.47
78902;DHT22;70441;44.758;37.686;2024-01-30T05:00:57;-2.97;74.63
78902;DHT22;70441;44.758;37.686;2024-01-30T05:01:59;-2.97;74.67
78902;DHT22;70441;44.758;37.686;2024-01-30T05:03:00;-2.98;74.90
78902;DHT22;70441;44.758;37.686;2024-01-30T05:04:02;-2.94;74.98
78902;DHT22;70441;44.758;37.686;2024-01-30T05:05:05;-3.00;74.98
78902;DHT22;70441;44.758;37.686;2024-01-30T05:06:07;-2.97;74.93
78902;DHT22;70441;44.758;37.686;2024-01-30T05:07:09;-2.93;74.81
78902;DHT22;70441;44.758;37.686;2024-01-30T05:08:11;-2.91;74.70
78902;DHT22;70441;44.758;37.686;2024-01-30T05:09:13;-2.90;74.58
78902;DHT22;70441;44.758;37.686;2024-01-30T05:10:15;-2.85;74.53
78902;DHT22;70441;44.758;37.686;2024-01-30T05:11:16;-2.85;74.42
78902;DHT22;70441;44.758;37.686;2024-01-30T05:12:18;-2.83;74.59
78902;DHT22;70441;44.758;37.686;2024-01-30T05:13:20;-2.80;74.77
78902;DHT22;70441;44.758;37.686;2024-01-30T05:14:22;-2.77;74.89
78902;DHT22;70441;44.758;37.686;2024-01-30T05:15:24;-2.77;74.89
78902;DHT22;70441;44.758;37.686;2024-01-30T05:16:26;-2.76;74.74
78902;DHT22;70441;44.758;37.686;2024-01-30T05:17:28;-2.79;74.90
78902;DHT22;70441;44.758;37.686;2024-01-30T05:18:29;-2.76;75.00
78902;DHT22;70441;44.758;37.686;2024-01-30T05:19:31;-2.72;74.47
78902;DHT22;70441;44.758;37.686;2024-01-30T05:20:33;-2.69;74.24
78902;DHT22;70441;44.758;37.686;2024-01-30T05:21:34;-2.65;74.28
78902;DHT22;70441;44.758;37.686;2024-01-30T05:22:36;-2.60;74.35
78902;DHT22;70441;44.758;37.686;2024-01-30T05:23:38;-2.60;74.34
78902;DHT22;70441;44.758;37.686;2024-01-30T05:24:41;-2.55;74.25
78902;DHT22;70441;44.758;37.686;2024-01-30T05:25:44;-2.52;73.61
78902;DHT22;70441;44.758;37.686;2024-01-30T05:26:46;-2.46;73.50
78902;DHT22;70441;44.758;37.686;2024-01-30T05:27:49;-2.38;73.40
78902;DHT22;70441;44.758;37.686;2024-01-30T05:28:51;-2.31;73.08
78902;DHT22;70441;44.758;37.686;2024-01-30T05:29:53;-2.25;72.74
78902;DHT22;70441;44.758;37.686;2024-01-30T05:30:55;-2.30;72.15
78902;DHT22;70441;44.758;37.686;2024-01-30T05:31:57;-2.30;72.00
78902;DHT22;70441;44.758;37.686;2024-01-30T05:32:59;-2.24;72.34
78902;DHT22;70441;44.758;37.686;2024-01-30T05:34:04;-2.17;72.20
78902;DHT22;70441;44.758;37.686;2024-01-30T05:35:06;-2.13;71.39
78902;DHT22;70441;44.758;37.686;2024-01-30T05:36:11;-2.07;70.76
78902;DHT22;70441;44.758;37.686;2024-01-30T05:37:14;-2.01;70.73
78902;DHT22;70441;44.758;37.686;2024-01-30T05:38:18;-1.93;70.60
78902;DHT22;70441;44.758;37.686;2024-01-30T05:39:20;-1.90;69.70
78902;DHT22;70441;44.758;37.686;2024-01-30T05:40:24;-1.89;69.12
78902;DHT22;70441;44.758;37.686;2024-01-30T05:41:26;-1.76;69.44
78902;DHT22;70441;44.758;37.686;2024-01-30T05:42:29;-1.72;69.19
78902;DHT22;70441;44.758;37.686;2024-01-30T05:43:30;-1.68;68.55
78902;DHT22;70441;44.758;37.686;2024-01-30T05:44:32;-1.62;68.53
78902;DHT22;70441;44.758;37.686;2024-01-30T05:45:34;-1.59;68.78
78902;DHT22;70441;44.758;37.686;2024-01-30T05:46:37;-1.54;68.88
78902;DHT22;70441;44.758;37.686;2024-01-30T05:47:39;-1.52;68.80
78902;DHT22;70441;44.758;37.686;2024-01-30T05:48:41;-1.51;68.72
78902;DHT22;70441;44.758;37.686;2024-01-30T05:49:43;-1.51;68.30
78902;DHT22;70441;44.758;37.686;2024-01-30T05:50:44;-1.52;68.24
78902;DHT22;70441;44.758;37.686;2024-01-30T05:51:46;-1.48;68.67
78902;DHT22;70441;44.758;37.686;2024-01-30T05:52:48;-1.44;68.51
78902;DHT22;70441;44.758;37.686;2024-01-30T05:53:50;-1.41;68.37
78902;DHT22;70441;44.758;37.686;2024-01-30T05:54:52;-1.41;67.74
78902;DHT22;70441;44.758;37.686;2024-01-30T05:55:53;-1.38;67.93
78902;DHT22;70441;44.758;37.686;2024-01-30T05:56:55;-1.30;68.21
78902;DHT22;70441;44.758;37.686;2024-01-30T05:57:57;-1.21;67.68
78902;DHT22;70441;44.758;37.686;2024-01-30T05:58:59;-1.20;67.33
78902;DHT22;70441;44.758;37.686;2024-01-30T06:00:00;-1.21;67.45
78902;DHT22;70441;44.758;37.686;2024-01-30T06:01:02;-1.21;66.89
78902;DHT22;70441;44.758;37.686;2024-01-30T06:02:04;-1.14;66.60
78902;DHT22;70441;44.758;37.686;2024-01-30T06:03:07;-1.09;66.53
78902;DHT22;70441;44.758;37.686;2024-01-30T06:04:09;-1.02;66.52
78902;DHT22;70441;44.758;37.686;2024-01-30T06:05:10;-0.93;66.38
78902;DHT22;70441;44.758;37.686;2024-01-30T06:06:12;-0.87;65.84
78902;DHT22;70441;44.758;37.686;2024-01-30T06:07:14;-0.81;65.91
78902;DHT22;70441;44.758;37.686;2024-01-30T06:08:17;-0.74;66.04
78902;DHT22;70441;44.758;37.686;2024-01-30T06:09:19;-0.70;65.80
78902;DHT22;70441;44.758;37.686;2024-01-30T06:10:21;-0.75;64.29
78902;DHT22;70441;44.758;37.686;2024-01-30T06:11:22;-0.71;64.93
78902;DHT22;70441;44.758;37.686;2024-01-30T06:12:24;-0.70;64.33
78902;DHT22;70441;44.758;37.686;2024-01-30T06:13:29;-0.71;63.80
78902;DHT22;70441;44.758;37.686;2024-01-30T06:15:09;-0.61;63.94
78902;DHT22;70441;44.758;37.686;2024-01-30T06:16:26;-0.58;64.10
78902;DHT22;70441;44.758;37.686;2024-01-30T06:17:30;-0.54;64.13
78902;DHT22;70441;44.758;37.686;2024-01-30T06:18:32;-0.50;64.04
78902;DHT22;70441;44.758;37.686;2024-01-30T06:19:34;-0.40;64.03
78902;DHT22;70441;44.758;37.686;2024-01-30T06:20:36;-0.41;62.68
78902;DHT22;70441;44.758;37.686;2024-01-30T06:21:38;-0.39;62.77
78902;DHT22;70441;44.758;37.686;2024-01-30T06:22:39;-0.32;62.95
78902;DHT22;70441;44.758;37.686;2024-01-30T06:23:41;-0.33;62.36
78902;DHT22;70441;44.758;37.686;2024-01-30T06:24:43;-0.36;62.56
78902;DHT22;70441;44.758;37.686;2024-01-30T06:25:50;-0.36;60.85
78902;DHT22;70441;44.758;37.686;2024-01-30T06:26:51;-0.41;60.56
78902;DHT22;70441;44.758;37.686;2024-01-30T06:27:53;-0.34;60.34
78902;DHT22;70441;44.758;37.686;2024-01-30T06:28:55;-0.30;60.77
78902;DHT22;70441;44.758;37.686;2024-01-30T06:29:57;-0.29;59.91